Latest Weather Observations for Melville Water

IDW60901

Issued at 8:41 pm WST Thursday 26 May 2016 (issued every 10 minutes, with the page automatically refreshed every 10 minutes)

About weather observations | Map of Perth area stations | Latest observations for Perth area | Other Formats
Station Details ID: 009091 Name: INNER DOLPHIN PYLON Lat: -31.99 Lon: 115.83 Height: 0.0 m
Data from the previous 72 hours. | See also: Recent months at Melville Water
Date/Time
WST
Tmp

°C
App
Tmp
°C
Dew
Point
°C
Rel
Hum
%
Delta-T

°C
Wind Press
QNH
hPa
Press
MSL
hPa
Rain
since
9 am
mm
Dir
 
Spd
km/h
Gust
km/h
Spd
kts
Gust
kts
26/08:30pm - - - - - ENE 2 4 1 2 - - -
26/08:00pm - - - - - NNE 2 4 1 2 - - -
26/07:30pm - - - - - CALM 0 2 0 1 - - -
26/07:00pm - - - - - SSW 2 2 1 1 - - -
26/06:30pm - - - - - S 6 7 3 4 - - -
26/06:00pm - - - - - S 7 9 4 5 - - -
26/05:30pm - - - - - SSW 9 11 5 6 - - -
26/05:00pm - - - - - SSW 13 15 7 8 - - -
26/04:30pm - - - - - SSW 17 22 9 12 - - -
26/04:00pm - - - - - SSW 15 22 8 12 - - -
26/03:30pm - - - - - S 19 24 10 13 - - -
26/03:00pm - - - - - SSW 19 24 10 13 - - -
26/02:30pm - - - - - SW 17 26 9 14 - - -
26/02:00pm - - - - - SW 9 13 5 7 - - -
26/01:30pm - - - - - SW 9 13 5 7 - - -
26/01:00pm - - - - - SSW 19 28 10 15 - - -
26/12:30pm - - - - - SSW 20 28 11 15 - - -
26/12:00pm - - - - - SW 22 28 12 15 - - -
26/11:30am - - - - - SW 17 22 9 12 - - -
26/11:00am - - - - - SSW 19 22 10 12 - - -
26/10:30am - - - - - WSW 24 41 13 22 - - -
26/10:29am - - - - - WSW 24 41 13 22 - - -
26/10:00am - - - - - NNW 2 6 1 3 - - -
26/09:30am - - - - - WSW 6 9 3 5 - - -
26/09:00am - - - - - SSW 13 26 7 14 - - -
26/08:30am - - - - - WSW 9 13 5 7 - - -
26/08:00am - - - - - SW 13 15 7 8 - - -
26/07:30am - - - - - SSW 19 24 10 13 - - -
26/07:00am - - - - - WSW 22 28 12 15 - - -
26/06:30am - - - - - WSW 22 30 12 16 - - -
26/06:00am - - - - - WSW 20 28 11 15 - - -
26/05:30am - - - - - WSW 19 30 10 16 - - -
26/05:00am - - - - - WSW 28 37 15 20 - - -
26/04:30am - - - - - W 20 30 11 16 - - -
26/04:00am - - - - - W 20 33 11 18 - - -
26/03:30am - - - - - WSW 28 37 15 20 - - -
26/03:00am - - - - - W 15 20 8 11 - - -
26/02:30am - - - - - W 17 22 9 12 - - -
26/02:00am - - - - - WNW 9 15 5 8 - - -
26/01:30am - - - - - WNW 13 22 7 12 - - -
26/01:00am - - - - - N 6 7 3 4 - - -
26/12:30am - - - - - N 7 9 4 5 - - -
26/12:00am - - - - - NE 11 13 6 7 - - -
 
Date/Time
WST
Tmp

°C
App
Tmp
°C
Dew
Point
°C
Rel
Hum
%
Delta-T

°C
Wind Press
QNH
hPa
Press
MSL
hPa
Rain
since
9 am
mm
Dir
 
Spd
km/h
Gust
km/h
Spd
kts
Gust
kts
25/11:30pm - - - - - ENE 2 7 1 4 - - -
25/11:00pm - - - - - NNE 13 17 7 9 - - -
25/10:30pm - - - - - N 11 15 6 8 - - -
25/10:00pm - - - - - NE 15 17 8 9 - - -
25/09:30pm - - - - - N 7 9 4 5 - - -
25/09:00pm - - - - - NW 9 11 5 6 - - -
25/08:30pm - - - - - W 20 28 11 15 - - -
25/08:00pm - - - - - NW 9 19 5 10 - - -
25/07:30pm - - - - - NNW 7 9 4 5 - - -
25/07:00pm - - - - - NNW 7 11 4 6 - - -
25/06:30pm - - - - - NW 15 20 8 11 - - -
25/06:00pm - - - - - WNW 9 11 5 6 - - -
25/05:30pm - - - - - W 17 26 9 14 - - -
25/05:00pm - - - - - W 13 17 7 9 - - -
25/04:30pm - - - - - WNW 13 19 7 10 - - -
25/04:00pm - - - - - WNW 7 11 4 6 - - -
25/03:30pm - - - - - WNW 13 19 7 10 - - -
25/03:00pm - - - - - WNW 20 26 11 14 - - -
25/02:30pm - - - - - W 20 30 11 16 - - -
25/02:00pm - - - - - W 19 26 10 14 - - -
25/01:30pm - - - - - W 20 35 11 19 - - -
25/01:00pm - - - - - W 17 24 9 13 - - -
25/12:30pm - - - - - W 15 22 8 12 - - -
25/12:00pm - - - - - W 17 24 9 13 - - -
25/11:30am - - - - - W 22 28 12 15 - - -
25/11:00am - - - - - W 19 30 10 16 - - -
25/10:30am - - - - - W 6 20 3 11 - - -
25/10:00am - - - - - ENE 9 13 5 7 - - -
25/09:30am - - - - - ENE 15 19 8 10 - - -
25/09:00am - - - - - ENE 11 15 6 8 - - -
25/08:30am - - - - - ESE 6 11 3 6 - - -
25/08:00am - - - - - NE 11 13 6 7 - - -
25/07:30am - - - - - ENE 11 13 6 7 - - -
25/07:00am - - - - - ENE 13 17 7 9 - - -
25/06:30am - - - - - ENE 9 11 5 6 - - -
25/06:00am - - - - - E 7 13 4 7 - - -
25/05:30am - - - - - NE 6 11 3 6 - - -
25/05:00am - - - - - W 6 9 3 5 - - -
25/04:30am - - - - - WSW 22 32 12 17 - - -
25/04:00am - - - - - ENE 11 15 6 8 - - -
25/03:30am - - - - - NE 11 15 6 8 - - -
25/03:00am - - - - - ENE 11 15 6 8 - - -
25/02:30am - - - - - NE 15 19 8 10 - - -
25/02:00am - - - - - NE 15 17 8 9 - - -
25/01:30am - - - - - ENE 11 17 6 9 - - -
25/01:00am - - - - - ENE 13 15 7 8 - - -
25/12:30am - - - - - E 13 15 7 8 - - -
25/12:00am - - - - - ESE 4 6 2 3 - - -
 
Date/Time
WST
Tmp

°C
App
Tmp
°C
Dew
Point
°C
Rel
Hum
%
Delta-T

°C
Wind Press
QNH
hPa
Press
MSL
hPa
Rain
since
9 am
mm
Dir
 
Spd
km/h
Gust
km/h
Spd
kts
Gust
kts
24/11:30pm - - - - - ESE 11 13 6 7 - - -
24/11:00pm - - - - - E 7 9 4 5 - - -
24/10:30pm - - - - - NE 9 11 5 6 - - -
24/10:00pm - - - - - NNE 7 11 4 6 - - -
24/09:30pm - - - - - ESE 11 13 6 7 - - -
24/09:00pm - - - - - ESE 11 15 6 8 - - -
24/08:30pm - - - - - E 9 13 5 7 - - -
24/08:00pm - - - - - E 9 13 5 7 - - -
24/07:30pm - - - - - SSE 7 11 4 6 - - -
24/07:00pm - - - - - SW 22 30 12 16 - - -
24/06:30pm - - - - - SW 2 7 1 4 - - -
24/06:00pm - - - - - SSE 4 4 2 2 - - -
24/05:30pm - - - - - SSW 13 15 7 8 - - -
24/05:00pm - - - - - WSW 26 39 14 21 - - -
24/04:30pm - - - - - WSW 15 20 8 11 - - -
24/04:00pm - - - - - WSW 22 28 12 15 - - -
24/03:30pm - - - - - SW 24 32 13 17 - - -
24/03:09pm - - - - - WSW 17 37 9 20 - - -
24/03:00pm - - - - - WSW 6 9 3 5 - - -
24/02:30pm - - - - - WSW 24 32 13 17 - - -
24/02:00pm - - - - - WSW 28 39 15 21 - - -
24/01:30pm - - - - - SW 28 32 15 17 - - -
24/01:00pm - - - - - WSW 28 39 15 21 - - -
24/12:30pm - - - - - WSW 26 35 14 19 - - -
24/12:00pm - - - - - WSW 24 33 13 18 - - -
24/11:30am - - - - - WSW 28 35 15 19 - - -
24/11:00am - - - - - WSW 32 44 17 24 - - -
24/10:33am - - - - - WSW 35 54 19 29 - - -
24/10:30am - - - - - WSW 35 46 19 25 - - -
24/10:00am - - - - - WSW 35 46 19 25 - - -
24/09:30am - - - - - WSW 28 35 15 19 - - -
24/09:00am - - - - - SW 32 39 17 21 - - -
24/08:30am - - - - - SW 32 39 17 21 - - -
24/08:00am - - - - - WSW 24 37 13 20 - - -
24/07:30am - - - - - SW 32 43 17 23 - - -
24/07:15am - - - - - SW 32 50 17 27 - - -
24/07:00am - - - - - SW 30 44 16 24 - - -
24/06:30am - - - - - WSW 35 46 19 25 - - -
24/06:00am - - - - - WSW 33 43 18 23 - - -
24/05:30am - - - - - WSW 37 57 20 31 - - -
24/05:26am - - - - - WSW 37 57 20 31 - - -
24/05:18am - - - - - WNW 43 67 23 36 - - -
24/05:15am - - - - - NW 44 67 24 36 - - -
24/05:13am - - - - - NW 43 61 23 33 - - -
24/05:00am - - - - - NNW 39 61 21 33 - - -
24/04:40am - - - - - NNW 37 56 20 30 - - -
24/04:30am - - - - - NNW 37 52 20 28 - - -
24/04:03am - - - - - NNW 35 54 19 29 - - -
24/04:00am - - - - - NNW 33 46 18 25 - - -
24/03:42am - - - - - N 28 46 15 25 - - -
24/03:30am - - - - - N 28 39 15 21 - - -
24/03:00am - - - - - N 22 30 12 16 - - -
24/02:30am - - - - - N 22 30 12 16 - - -
24/02:00am - - - - - NNE 24 35 13 19 - - -
24/01:30am - - - - - N 20 30 11 16 - - -
24/01:00am - - - - - NNE 20 30 11 16 - - -
24/12:30am - - - - - N 20 30 11 16 - - -
24/12:00am - - - - - NNE 26 33 14 18 - - -
 
Date/Time
WST
Tmp

°C
App
Tmp
°C
Dew
Point
°C
Rel
Hum
%
Delta-T

°C
Wind Press
QNH
hPa
Press
MSL
hPa
Rain
since
9 am
mm
Dir
 
Spd
km/h
Gust
km/h
Spd
kts
Gust
kts
23/11:30pm - - - - - NNE 20 26 11 14 - - -
23/11:00pm - - - - - NNE 20 28 11 15 - - -
23/10:30pm - - - - - NNE 22 30 12 16 - - -
23/10:00pm - - - - - NNE 20 26 11 14 - - -
23/09:30pm - - - - - NNE 19 26 10 14 - - -
23/09:00pm - - - - - NNE 19 26 10 14 - - -

Latest Capital City Observations: Canberra | Sydney | Melbourne | Brisbane | Adelaide | Perth | Hobart | Darwin

Other Formats:

Comma delimited format used in spreadsheet applications
http://www.bom.gov.au/fwo/IDW60901/IDW60901.95620.axf

JavaScript Object Notation format (JSON) in row-major order
http://www.bom.gov.au/fwo/IDW60901/IDW60901.95620.json